Time;durP1;ratioP1;P1;durP2;ratioP2;P2;SDS_P1;SDS_P2;PMS_P1;PMS_P2;Temp;Humidity;BMP_temperature;BMP_pressure;BME280_temperature;BME280_humidity;BME280_pressure;Samples;Min_cycle;Max_cycle;Signal;HPM_P1;HPM_P2
2022/03/18 00:01:12;;;;;;;16.40;4.57;;;4.50;99.90;;;;;;5012284;28;20088;-77
2022/03/18 00:03:37;;;;;;;14.35;4.13;;;4.50;99.90;;;;;;5012239;28;20388;-77
2022/03/18 00:06:03;;;;;;;14.55;4.05;;;4.50;99.90;;;;;;4995203;28;20121;-77
2022/03/18 00:08:29;;;;;;;16.17;5.18;;;4.40;99.90;;;;;;5012149;28;20044;-77
2022/03/18 00:10:55;;;;;;;15.95;5.13;;;4.40;99.90;;;;;;4995856;28;20034;-77
2022/03/18 00:13:21;;;;;;;16.88;6.43;;;4.30;99.90;;;;;;4995864;28;20038;-79
2022/03/18 00:15:47;;;;;;;23.88;8.48;;;4.30;99.90;;;;;;5012023;28;20092;-73
2022/03/18 00:18:12;;;;;;;20.52;6.88;;;4.30;99.90;;;;;;5012057;28;20030;-73
2022/03/18 00:20:38;;;;;;;19.08;7.40;;;4.30;99.90;;;;;;5012013;28;20073;-73
2022/03/18 00:23:03;;;;;;;15.48;6.63;;;4.30;99.90;;;;;;5012280;28;20104;-73
2022/03/18 00:25:29;;;;;;;19.42;7.65;;;4.30;99.90;;;;;;5011964;28;20560;-73
2022/03/18 00:27:55;;;;;;;27.05;8.50;;;4.30;99.90;;;;;;4995605;28;20042;-73
2022/03/18 00:30:21;;;;;;;24.20;7.72;;;4.40;99.90;;;;;;5011939;28;20056;-73
2022/03/18 00:32:49;;;;;;;18.05;6.97;;;4.40;99.90;;;;;;5011989;28;20038;-73
2022/03/18 00:35:15;;;;;;;20.27;7.10;;;4.40;99.90;;;;;;5011893;28;20053;-73
2022/03/18 00:37:40;;;;;;;19.75;7.70;;;4.40;99.90;;;;;;5011822;28;20129;-73
2022/03/18 00:40:07;;;;;;;19.08;7.32;;;4.40;99.90;;;;;;5011885;28;20498;-73
2022/03/18 00:42:33;;;;;;;17.33;7.15;;;4.30;99.90;;;;;;5011899;28;20073;-74
2022/03/18 00:45:00;;;;;;;24.52;7.65;;;4.30;99.90;;;;;;4995676;28;20053;-74
2022/03/18 00:52:54;;;;;;;20.88;8.05;;;4.20;99.90;;;;;;5011814;28;20048;-74
2022/03/18 00:55:20;;;;;;;25.67;8.02;;;4.20;99.90;;;;;;4995357;28;20041;-74
2022/03/18 00:57:46;;;;;;;19.33;8.43;;;4.20;99.90;;;;;;5011678;28;20045;-74
2022/03/18 01:00:12;;;;;;;20.75;8.23;;;4.20;99.90;;;;;;4995633;28;20046;-74
2022/03/18 01:02:38;;;;;;;23.52;7.38;;;4.20;99.90;;;;;;4995324;28;20414;-73
2022/03/18 01:05:04;;;;;;;19.08;7.80;;;4.20;99.90;;;;;;5011664;28;20034;-74
2022/03/18 01:07:30;;;;;;;17.33;7.10;;;4.30;99.90;;;;;;5011573;28;20042;-74
2022/03/18 01:09:56;;;;;;;18.73;6.78;;;4.30;99.90;;;;;;5011583;28;20045;-74
2022/03/18 01:12:22;;;;;;;15.98;6.40;;;4.30;99.90;;;;;;5011866;28;20065;-74
2022/03/18 01:14:48;;;;;;;19.17;6.68;;;4.40;99.90;;;;;;5011494;28;20499;-74
2022/03/18 01:17:14;;;;;;;22.08;7.45;;;4.30;99.90;;;;;;4996742;28;20033;-74
2022/03/18 01:19:40;;;;;;;20.45;7.22;;;4.30;99.90;;;;;;5015098;28;20045;-74
2022/03/18 01:22:06;;;;;;;14.98;5.97;;;4.30;99.90;;;;;;5015062;28;20080;-74
2022/03/18 01:24:31;;;;;;;16.08;6.88;;;4.30;99.90;;;;;;5015264;28;20077;-74
2022/03/18 01:26:57;;;;;;;18.20;8.00;;;4.30;99.90;;;;;;4998612;28;20045;-74
2022/03/18 01:29:23;;;;;;;20.05;6.80;;;4.20;99.90;;;;;;5014947;28;20049;-74
2022/03/18 01:31:48;;;;;;;15.77;6.15;;;4.20;99.90;;;;;;4998622;28;20042;-74
2022/03/18 01:34:14;;;;;;;17.65;6.47;;;4.20;99.90;;;;;;5014968;28;20041;-74
2022/03/18 01:36:40;;;;;;;14.73;6.75;;;4.20;99.90;;;;;;5014745;28;20491;-74
2022/03/18 01:39:05;;;;;;;14.95;6.20;;;4.30;99.90;;;;;;4998401;28;20129;-74
2022/03/18 01:41:32;;;;;;;18.65;7.55;;;4.30;99.90;;;;;;5014988;28;20077;-74
2022/03/18 01:43:57;;;;;;;15.75;6.80;;;4.20;99.90;;;;;;5014637;28;20034;-74
2022/03/18 01:46:24;;;;;;;16.20;6.60;;;4.30;99.90;;;;;;5014709;28;20080;-74
2022/03/18 01:48:50;;;;;;;15.30;6.13;;;4.20;99.90;;;;;;5014559;28;20116;-74
2022/03/18 01:51:16;;;;;;;19.38;6.90;;;4.20;99.90;;;;;;5014787;28;20100;-74
2022/03/18 01:53:44;;;;;;;14.25;6.72;;;4.20;99.90;;;;;;4998106;28;20045;-74
2022/03/18 01:56:11;;;;;;;13.27;6.40;;;4.20;99.90;;;;;;5014610;28;20406;-74
2022/03/18 01:58:37;;;;;;;19.27;6.30;;;4.20;99.90;;;;;;4998021;28;20038;-74
2022/03/18 02:01:03;;;;;;;17.50;6.85;;;4.20;99.90;;;;;;4998042;28;20038;-74
2022/03/18 02:03:29;;;;;;;14.18;5.90;;;4.20;99.90;;;;;;5015058;28;20116;-74
2022/03/18 02:05:54;;;;;;;18.15;6.75;;;4.30;99.90;;;;;;5014920;28;20136;-74
2022/03/18 02:08:21;;;;;;;23.02;6.93;;;4.30;99.90;;;;;;5015087;28;20049;-74
2022/03/18 02:10:46;;;;;;;17.05;6.25;;;4.30;99.90;;;;;;5015138;28;20052;-74
2022/03/18 02:13:12;;;;;;;17.10;6.60;;;4.30;99.90;;;;;;5015083;28;20120;-74
2022/03/18 02:15:38;;;;;;;16.20;6.85;;;4.30;99.90;;;;;;5014720;28;20077;-74
2022/03/18 02:18:05;;;;;;;22.20;6.85;;;4.30;99.90;;;;;;5014790;28;20034;-74
2022/03/18 02:20:32;;;;;;;17.15;6.50;;;4.30;99.90;;;;;;5014663;28;20048;-74
2022/03/18 02:22:57;;;;;;;15.77;6.28;;;4.20;99.90;;;;;;5014788;28;20038;-74
2022/03/18 02:25:23;;;;;;;18.10;6.45;;;4.10;99.90;;;;;;4998400;28;20549;-74
2022/03/18 02:27:57;;;;;;;15.63;6.45;;;4.10;99.90;;;;;;5014126;28;20054;-74
2022/03/18 02:30:24;;;;;;;19.70;7.32;;;4.10;99.90;;;;;;4998390;28;20049;-74
2022/03/18 02:32:50;;;;;;;17.70;7.00;;;4.10;99.90;;;;;;5014808;28;20053;-74
2022/03/18 02:35:15;;;;;;;21.50;8.05;;;4.10;99.90;;;;;;4998099;28;20414;-74
2022/03/18 02:37:41;;;;;;;16.40;6.90;;;4.10;99.90;;;;;;4997994;28;20045;-74
2022/03/18 02:40:07;;;;;;;20.63;8.88;;;4.20;99.90;;;;;;4998236;28;20044;-74
2022/03/18 02:42:33;;;;;;;24.40;8.98;;;4.20;99.90;;;;;;5014172;28;20491;-74
2022/03/18 02:45:00;;;;;;;26.42;10.93;;;4.20;99.90;;;;;;5014525;28;20072;-74
2022/03/18 02:47:26;;;;;;;27.05;10.27;;;4.20;99.90;;;;;;4997710;28;20087;-74
2022/03/18 02:49:51;;;;;;;23.80;10.30;;;4.20;99.90;;;;;;4997870;28;20049;-74
2022/03/18 02:52:17;;;;;;;20.00;7.82;;;4.20;99.90;;;;;;4998540;28;20042;-74
2022/03/18 02:54:42;;;;;;;23.98;9.00;;;4.30;99.90;;;;;;5014122;28;20069;-74
2022/03/18 02:57:09;;;;;;;18.90;8.48;;;4.30;99.90;;;;;;4997812;28;20038;-74
2022/03/18 02:59:35;;;;;;;16.63;7.93;;;4.30;99.90;;;;;;5013775;28;20038;-74
2022/03/18 03:02:00;;;;;;;21.70;9.05;;;4.20;99.90;;;;;;5014090;28;20081;-74
2022/03/18 03:04:26;;;;;;;17.20;8.35;;;4.20;99.90;;;;;;5014432;28;20406;-74
2022/03/18 03:09:36;;;;;;;20.23;8.68;;;4.20;99.90;;;;;;5013869;28;20046;-74
2022/03/18 03:12:01;;;;;;;21.48;8.65;;;4.20;99.90;;;;;;4997542;28;20045;-74
2022/03/18 03:14:27;;;;;;;18.80;7.80;;;4.20;99.90;;;;;;5013627;28;20042;-74
2022/03/18 03:16:53;;;;;;;22.40;9.70;;;4.10;99.90;;;;;;4997090;28;20046;-74
2022/03/18 03:19:18;;;;;;;24.35;9.82;;;4.10;99.90;;;;;;5013364;28;20089;-74
2022/03/18 03:21:44;;;;;;;24.60;9.32;;;4.10;99.90;;;;;;5013941;28;20030;-74
2022/03/18 03:24:10;;;;;;;25.80;8.55;;;4.10;99.90;;;;;;5013873;28;20486;-74
2022/03/18 03:26:36;;;;;;;20.75;9.35;;;4.10;99.90;;;;;;5013437;28;20042;-74
2022/03/18 03:29:01;;;;;;;24.92;10.00;;;4.10;99.90;;;;;;5013520;28;20080;-74
2022/03/18 03:31:27;;;;;;;21.55;9.82;;;4.00;99.90;;;;;;4997237;28;20564;-74
2022/03/18 03:33:53;;;;;;;19.83;9.95;;;4.00;99.90;;;;;;4996848;28;20038;-74
2022/03/18 03:36:18;;;;;;;21.90;9.85;;;4.10;99.90;;;;;;5013121;28;20065;-74
2022/03/18 03:38:44;;;;;;;20.58;8.95;;;4.10;99.90;;;;;;5013271;28;20053;-74
2022/03/18 03:41:10;;;;;;;20.73;8.68;;;4.10;99.90;;;;;;4996169;28;20036;-74
2022/03/18 03:43:35;;;;;;;19.80;8.65;;;4.10;99.90;;;;;;4996982;28;20038;-74
2022/03/18 03:46:01;;;;;;;27.67;10.20;;;4.20;99.90;;;;;;4997031;28;20041;-74
2022/03/18 03:48:27;;;;;;;19.08;8.65;;;4.10;99.90;;;;;;5013183;28;20498;-74
2022/03/18 03:50:53;;;;;;;17.48;8.55;;;4.10;99.90;;;;;;5013399;28;20050;-74
2022/03/18 03:53:18;;;;;;;21.23;8.27;;;4.00;99.90;;;;;;5013174;28;20038;-74
2022/03/18 03:55:45;;;;;;;16.98;7.90;;;3.90;99.90;;;;;;4996652;28;20081;-74
2022/03/18 03:58:11;;;;;;;22.10;8.45;;;3.80;99.90;;;;;;5013078;28;20490;-74
2022/03/18 04:00:37;;;;;;;25.98;8.85;;;3.80;99.90;;;;;;4996641;28;20049;-74
2022/03/18 04:03:06;;;;;;;18.00;8.05;;;3.80;99.90;;;;;;5013409;28;20038;-75
2022/03/18 04:05:32;;;;;;;16.52;8.27;;;3.70;99.90;;;;;;5013004;28;20403;-75
2022/03/18 04:07:59;;;;;;;18.90;8.75;;;3.70;99.90;;;;;;5013180;28;20175;-75
2022/03/18 04:10:25;;;;;;;21.95;9.63;;;3.70;99.90;;;;;;5013062;28;20096;-75
2022/03/18 04:12:51;;;;;;;24.58;9.20;;;3.70;99.90;;;;;;5013095;28;20060;-75
2022/03/18 04:15:17;;;;;;;21.67;8.65;;;3.80;99.90;;;;;;5012831;28;20484;-75
2022/03/18 04:17:45;;;;;;;19.90;8.82;;;3.80;99.90;;;;;;5012959;28;20052;-75
2022/03/18 04:20:20;;;;;;;17.65;8.32;;;3.80;99.90;;;;;;5013086;28;20486;-75
2022/03/18 04:22:45;;;;;;;14.88;7.93;;;3.80;99.90;;;;;;4996689;28;20041;-75
2022/03/18 04:25:11;;;;;;;16.60;7.80;;;3.80;99.90;;;;;;4996455;28;20391;-75
2022/03/18 04:27:38;;;;;;;18.58;9.05;;;3.70;99.90;;;;;;4997100;28;20124;-74
2022/03/18 04:30:06;;;;;;;18.88;9.48;;;3.70;99.90;;;;;;5012995;28;20038;-74
2022/03/18 04:32:32;;;;;;;21.80;8.75;;;3.70;99.90;;;;;;5012643;28;20046;-74
2022/03/18 04:34:57;;;;;;;18.25;8.35;;;3.60;99.90;;;;;;5012877;28;20125;-74
2022/03/18 04:37:23;;;;;;;24.48;8.70;;;3.60;99.90;;;;;;5012512;28;20095;-74
2022/03/18 04:39:49;;;;;;;17.40;7.95;;;3.60;99.90;;;;;;5012618;28;20042;-74
2022/03/18 04:42:14;;;;;;;18.95;8.50;;;3.70;99.90;;;;;;5012908;28;20128;-74
2022/03/18 04:44:40;;;;;;;14.18;7.03;;;3.70;99.90;;;;;;4996162;28;20187;-74
2022/03/18 04:47:06;;;;;;;14.82;6.90;;;3.70;99.90;;;;;;4996012;28;20140;-74
2022/03/18 04:49:31;;;;;;;21.05;7.72;;;3.70;99.90;;;;;;5012928;28;20041;-74
2022/03/18 04:51:57;;;;;;;17.23;7.53;;;3.70;99.90;;;;;;4997947;28;20565;-74
2022/03/18 04:54:22;;;;;;;18.80;7.75;;;3.70;99.90;;;;;;5000180;28;20533;-74
2022/03/18 04:59:32;;;;;;;19.50;7.30;;;3.80;99.90;;;;;;5016406;28;20498;-74
2022/03/18 05:01:57;;;;;;;22.25;7.80;;;3.80;99.90;;;;;;5000045;28;20042;-75
2022/03/18 05:04:23;;;;;;;14.93;7.32;;;3.80;99.90;;;;;;5016327;28;20418;-75
2022/03/18 05:06:48;;;;;;;14.90;7.05;;;3.80;99.90;;;;;;4999986;28;20125;-74
2022/03/18 05:09:14;;;;;;;17.10;7.55;;;3.80;99.90;;;;;;5016510;28;20041;-74
2022/03/18 05:11:39;;;;;;;17.80;7.85;;;3.80;99.90;;;;;;5016048;28;20419;-74
2022/03/18 05:14:06;;;;;;;15.20;7.10;;;3.80;99.90;;;;;;4999639;28;20048;-74
2022/03/18 05:16:32;;;;;;;18.30;7.72;;;3.80;99.90;;;;;;4999695;28;20046;-74
2022/03/18 05:18:58;;;;;;;16.92;7.65;;;3.80;99.90;;;;;;5016113;28;20145;-74
2022/03/18 05:21:24;;;;;;;13.57;6.82;;;3.70;99.90;;;;;;5016266;28;20465;-74
2022/03/18 05:23:49;;;;;;;14.70;6.93;;;3.70;99.90;;;;;;5016057;28;20045;-74
2022/03/18 05:26:15;;;;;;;16.50;7.78;;;3.70;99.90;;;;;;5000053;28;20078;-74
2022/03/18 05:28:42;;;;;;;13.60;7.13;;;3.60;99.90;;;;;;5015941;28;20073;-74
2022/03/18 05:31:08;;;;;;;16.38;7.03;;;3.60;99.90;;;;;;4999243;28;20037;-74
2022/03/18 05:33:34;;;;;;;15.15;7.30;;;3.50;99.90;;;;;;5015883;28;20045;-74
2022/03/18 05:35:59;;;;;;;16.02;7.40;;;3.50;99.90;;;;;;4999263;28;20049;-74
2022/03/18 05:38:25;;;;;;;16.50;7.18;;;3.50;99.90;;;;;;5015639;28;20056;-74
2022/03/18 05:40:51;;;;;;;13.95;7.13;;;3.40;99.90;;;;;;4999325;28;20509;-74
2022/03/18 05:43:17;;;;;;;15.05;6.72;;;3.40;99.90;;;;;;4999153;28;20038;-74
2022/03/18 05:45:45;;;;;;;16.65;8.00;;;3.40;99.90;;;;;;4999078;28;20418;-74
2022/03/18 05:48:10;;;;;;;18.63;7.75;;;3.40;99.90;;;;;;5015405;28;20046;-74
2022/03/18 05:50:36;;;;;;;17.25;7.07;;;3.30;99.90;;;;;;5015485;28;20052;-74
2022/03/18 05:53:02;;;;;;;13.43;6.82;;;3.30;99.90;;;;;;5015354;28;20044;-74
2022/03/18 05:58:12;;;;;;;15.02;6.25;;;3.20;99.90;;;;;;5015197;28;20042;-74
2022/03/18 06:00:38;;;;;;;12.85;6.40;;;3.20;99.90;;;;;;4998890;28;20034;-74
2022/03/18 06:03:03;;;;;;;16.08;7.68;;;3.10;99.90;;;;;;5014542;28;20038;-74
2022/03/18 06:05:29;;;;;;;19.25;8.10;;;3.20;99.90;;;;;;5015180;28;20446;-74
2022/03/18 06:11:48;;;;;;;15.90;8.40;;;3.20;99.90;;;;;;5014686;28;20053;-74
2022/03/18 06:13:24;;;;;;;18.17;8.05;;;3.20;99.90;;;;;;5015218;28;20128;-74
2022/03/18 06:15:49;;;;;;;18.73;9.00;;;3.20;99.90;;;;;;4998011;28;20124;-74
2022/03/18 06:18:15;;;;;;;18.42;8.45;;;3.20;99.90;;;;;;5015169;28;20084;-74
2022/03/18 06:20:41;;;;;;;16.25;7.93;;;3.20;99.90;;;;;;5014714;28;20463;-74
2022/03/18 06:23:06;;;;;;;16.60;7.68;;;3.30;99.90;;;;;;5014439;28;20100;-74
2022/03/18 06:25:32;;;;;;;18.73;8.20;;;3.30;99.90;;;;;;4998193;28;20120;-74
2022/03/18 06:27:57;;;;;;;19.52;8.05;;;3.30;99.90;;;;;;4997954;28;20041;-74
2022/03/18 06:30:23;;;;;;;20.02;7.95;;;3.40;99.90;;;;;;5014800;28;20134;-74
2022/03/18 06:32:48;;;;;;;17.00;8.00;;;3.40;99.90;;;;;;5014429;28;20048;-74
2022/03/18 06:35:14;;;;;;;17.13;7.53;;;3.50;99.90;;;;;;5014160;28;20038;-74
2022/03/18 06:37:39;;;;;;;18.63;8.75;;;3.50;99.90;;;;;;5014135;28;20045;-74
2022/03/18 06:40:06;;;;;;;17.10;8.57;;;3.60;99.90;;;;;;5014131;28;20045;-74
2022/03/18 06:42:31;;;;;;;19.20;8.05;;;3.60;99.90;;;;;;5014457;28;20518;-74
2022/03/18 06:44:57;;;;;;;16.33;8.50;;;3.60;99.90;;;;;;5014477;28;20072;-74
2022/03/18 06:47:22;;;;;;;18.98;8.38;;;3.70;99.90;;;;;;4997509;28;20096;-74
2022/03/18 06:49:48;;;;;;;16.92;8.68;;;3.70;99.90;;;;;;5014027;28;20042;-75
2022/03/18 06:52:16;;;;;;;17.92;9.00;;;3.70;99.90;;;;;;4997742;28;20103;-75
2022/03/18 06:54:42;;;;;;;21.17;9.05;;;3.70;99.90;;;;;;5013742;28;20042;-74
2022/03/18 06:57:07;;;;;;;19.10;9.35;;;3.80;99.90;;;;;;5014493;28;20443;-74
2022/03/18 06:59:33;;;;;;;20.52;9.23;;;3.80;99.90;;;;;;5013556;28;20472;-74
2022/03/18 07:01:58;;;;;;;15.90;8.65;;;3.80;99.90;;;;;;5013598;28;20506;-74
2022/03/18 07:04:24;;;;;;;22.67;9.32;;;3.90;99.90;;;;;;5014105;28;20406;-74
2022/03/18 07:06:50;;;;;;;20.83;9.90;;;4.00;99.90;;;;;;5014343;28;20384;-74
2022/03/18 07:09:15;;;;;;;18.10;9.75;;;4.10;99.90;;;;;;5013847;28;20111;-74
2022/03/18 07:11:41;;;;;;;17.77;8.93;;;4.10;99.90;;;;;;4997258;28;20041;-74
2022/03/18 07:14:07;;;;;;;23.27;9.88;;;4.20;99.90;;;;;;4997597;28;20038;-74
2022/03/18 07:19:16;;;;;;;21.88;9.77;;;4.40;99.90;;;;;;5013821;28;20510;-74
2022/03/18 07:21:42;;;;;;;20.38;10.15;;;4.50;99.90;;;;;;5013163;28;20050;-75
2022/03/18 07:24:07;;;;;;;18.48;10.10;;;4.60;99.90;;;;;;5013537;28;20042;-75
2022/03/18 07:26:33;;;;;;;18.20;11.38;;;4.60;99.90;;;;;;4996747;28;20033;-74
2022/03/18 07:29:03;;;;;;;19.50;10.45;;;4.70;99.90;;;;;;5014327;28;20140;-74
2022/03/18 07:31:29;;;;;;;22.35;11.18;;;4.80;99.90;;;;;;5013248;28;20389;-73
2022/03/18 07:33:55;;;;;;;16.63;10.73;;;4.90;99.90;;;;;;5013170;28;20584;-73
2022/03/18 07:36:20;;;;;;;19.90;11.98;;;4.90;99.90;;;;;;5012822;28;20054;-73
2022/03/18 07:38:46;;;;;;;19.48;11.93;;;5.10;99.90;;;;;;5013003;28;20034;-73
2022/03/18 07:41:12;;;;;;;20.27;12.02;;;5.10;99.90;;;;;;4996753;28;20049;-73
2022/03/18 07:43:37;;;;;;;18.58;11.60;;;5.20;99.90;;;;;;5013095;28;20468;-73
2022/03/18 07:46:03;;;;;;;19.60;11.55;;;5.30;99.90;;;;;;5012258;28;20434;-73
2022/03/18 07:48:29;;;;;;;22.00;12.02;;;5.50;99.90;;;;;;5012788;28;20042;-73
2022/03/18 07:50:55;;;;;;;20.35;12.32;;;5.60;99.90;;;;;;5012589;28;20052;-73
2022/03/18 07:53:21;;;;;;;23.60;12.25;;;5.70;99.90;;;;;;5012675;28;20494;-73
2022/03/18 07:55:47;;;;;;;22.05;12.57;;;5.80;99.90;;;;;;4996013;28;20069;-73
2022/03/18 07:58:13;;;;;;;28.38;13.77;;;5.90;99.90;;;;;;5012640;28;20084;-73
2022/03/18 08:00:38;;;;;;;22.55;12.75;;;6.00;99.90;;;;;;5012449;28;20076;-73
2022/03/18 08:03:04;;;;;;;21.80;12.85;;;6.10;99.90;;;;;;4996566;28;20196;-74
2022/03/18 08:05:30;;;;;;;19.52;12.75;;;6.20;99.90;;;;;;5012545;28;20045;-74
2022/03/18 08:07:57;;;;;;;19.95;12.30;;;6.30;99.90;;;;;;5012966;28;20053;-74
2022/03/18 08:10:22;;;;;;;22.75;13.60;;;6.50;99.90;;;;;;4996134;28;20037;-75
2022/03/18 08:12:49;;;;;;;23.08;13.25;;;6.70;99.90;;;;;;5012272;28;20034;-75
2022/03/18 08:15:16;;;;;;;18.10;12.50;;;6.90;99.90;;;;;;5012387;28;20084;-75
2022/03/18 08:17:43;;;;;;;23.83;13.95;;;7.10;99.90;;;;;;4995885;28;20042;-74
2022/03/18 08:20:13;;;;;;;21.98;12.98;;;7.40;99.90;;;;;;5012277;28;20033;-74
2022/03/18 08:22:39;;;;;;;22.33;13.27;;;7.70;99.90;;;;;;5012328;28;20034;-75
2022/03/18 08:25:06;;;;;;;18.40;12.73;;;7.90;99.90;;;;;;5012354;28;20050;-75
2022/03/18 08:27:32;;;;;;;26.40;13.50;;;8.30;99.90;;;;;;5014491;28;20084;-75
2022/03/18 08:29:59;;;;;;;24.80;13.10;;;8.50;99.90;;;;;;5016379;28;20073;-75
2022/03/18 08:32:27;;;;;;;20.17;11.07;;;8.80;99.90;;;;;;5016109;28;20045;-74
2022/03/18 08:34:52;;;;;;;18.85;10.95;;;9.20;99.90;;;;;;5015949;28;20038;-74
2022/03/18 08:37:56;;;;;;;17.65;11.75;;;9.50;99.90;;;;;;5015834;28;20049;-74
2022/03/18 08:40:07;;;;;;;25.27;10.98;;;9.90;99.90;;;;;;5016082;28;20115;-75
2022/03/18 08:42:34;;;;;;;19.92;11.43;;;10.30;99.90;;;;;;4999791;28;20137;-75
2022/03/18 08:45:00;;;;;;;23.13;11.15;;;10.80;99.90;;;;;;5016068;28;20100;-75
2022/03/18 08:47:26;;;;;;;17.90;10.50;;;11.30;99.90;;;;;;5015912;28;20037;-75
2022/03/18 08:49:52;;;;;;;19.98;11.20;;;11.70;99.90;;;;;;4999411;28;20410;-75
2022/03/18 08:52:17;;;;;;;22.63;10.32;;;12.40;99.90;;;;;;5016066;28;20185;-75
2022/03/18 08:54:43;;;;;;;21.83;10.65;;;13.00;99.90;;;;;;5015730;28;20541;-76
2022/03/18 08:57:09;;;;;;;19.95;9.38;;;13.70;99.90;;;;;;5015902;28;20033;-75
2022/03/18 08:59:35;;;;;;;23.48;9.73;;;14.40;99.90;;;;;;5015538;28;20498;-75
2022/03/18 09:02:00;;;;;;;19.73;9.30;;;15.20;99.90;;;;;;5015757;28;20041;-75
2022/03/18 09:04:26;;;;;;;19.95;9.15;;;15.90;97.20;;;;;;4999397;28;20042;-75
2022/03/18 09:06:51;;;;;;;19.60;9.60;;;16.60;91.70;;;;;;5015641;28;20472;-75
2022/03/18 09:09:17;;;;;;;18.83;8.27;;;17.20;82.90;;;;;;5015427;28;20581;-75
2022/03/18 09:11:43;;;;;;;17.45;9.13;;;17.80;77.10;;;;;;5015729;28;20053;-75
2022/03/18 09:14:10;;;;;;;16.65;8.65;;;18.20;71.40;;;;;;4998891;28;20073;-75
2022/03/18 09:16:37;;;;;;;20.92;8.07;;;18.80;68.20;;;;;;4999325;28;20041;-75
2022/03/18 09:19:04;;;;;;;20.17;7.97;;;19.10;65.90;;;;;;5015724;28;20045;-75
2022/03/18 09:21:30;;;;;;;19.50;8.48;;;19.40;63.80;;;;;;5015377;28;20060;-75
2022/03/18 09:23:56;;;;;;;17.13;8.32;;;19.70;62.20;;;;;;5015261;28;20034;-75
2022/03/18 09:26:21;;;;;;;23.60;7.88;;;19.90;61.40;;;;;;5015024;28;20042;-75
2022/03/18 09:28:47;;;;;;;18.17;7.72;;;20.20;60.70;;;;;;5015009;28;20510;-75
2022/03/18 09:31:13;;;;;;;23.35;7.85;;;20.30;60.00;;;;;;5014976;28;20038;-75
2022/03/18 09:33:41;;;;;;;19.20;7.05;;;20.40;59.30;;;;;;5015188;28;20042;-75
2022/03/18 09:36:08;;;;;;;15.80;7.00;;;20.50;58.70;;;;;;5014725;28;20077;-75
2022/03/18 09:38:34;;;;;;;19.67;7.53;;;20.70;58.20;;;;;;4998395;28;20042;-75
2022/03/18 09:40:59;;;;;;;18.42;7.20;;;20.90;57.50;;;;;;4998402;28;20041;-75
2022/03/18 09:43:30;;;;;;;15.27;7.28;;;21.20;56.90;;;;;;5014843;28;20038;-76
2022/03/18 09:45:57;;;;;;;16.88;7.65;;;21.40;56.30;;;;;;5014914;28;20045;-75
2022/03/18 09:48:24;;;;;;;21.05;7.65;;;21.40;56.00;;;;;;5015275;28;20379;-75
2022/03/18 09:50:50;;;;;;;18.17;6.65;;;21.40;55.30;;;;;;5015257;28;20045;-75
2022/03/18 09:53:17;;;;;;;16.15;6.53;;;21.50;55.50;;;;;;4998619;28;20156;-75
2022/03/18 09:55:42;;;;;;;18.75;7.07;;;21.50;55.50;;;;;;4998068;28;20069;-76
2022/03/18 09:58:08;;;;;;;16.67;6.57;;;21.50;55.40;;;;;;5014441;28;20151;-76
2022/03/18 10:00:34;;;;;;;17.85;6.50;;;21.50;55.50;;;;;;5014486;28;20034;-77
2022/03/18 10:03:17;;;;;;;16.60;6.63;;;21.50;55.70;;;;;;5014409;28;20126;-76
2022/03/18 10:05:59;;;;;;;;;;;21.50;55.30;;;;;;4998465;28;20161;-76
2022/03/18 10:08:49;;;;;;;13.10;6.68;;;21.40;56.00;;;;;;5014288;28;19918;-76
2022/03/18 10:11:26;;;;;;;16.65;7.43;;;21.50;55.30;;;;;;4984122;28;20061;-76
2022/03/18 10:14:05;;;;;;;15.68;6.57;;;21.40;56.00;;;;;;4998053;28;20038;-76
2022/03/18 10:16:36;;;;;;;14.77;6.03;;;21.20;56.30;;;;;;4997886;28;20525;-76
2022/03/18 10:19:13;;;;;;;15.07;6.00;;;21.00;56.70;;;;;;4998223;28;20030;-76
2022/03/18 10:21:52;;;;;;;13.77;5.13;;;20.80;56.60;;;;;;5014307;28;20038;-76
2022/03/18 10:24:22;;;;;;;16.30;4.78;;;20.60;56.90;;;;;;5014391;28;20041;-76
2022/03/18 10:26:50;;;;;;;11.32;4.85;;;20.50;57.00;;;;;;5013990;28;20081;-76
2022/03/18 10:29:16;;;;;;;11.63;4.43;;;20.40;57.20;;;;;;5014012;28;20048;-76
2022/03/18 10:31:57;;;;;;;20.13;5.25;;;20.30;57.30;;;;;;5014133;28;20137;-76
2022/03/18 10:37:22;;;;;;;12.43;5.57;;;20.30;57.20;;;;;;5013695;28;20503;-76
2022/03/18 10:39:50;;;;;;;14.63;4.97;;;20.30;57.50;;;;;;5014053;28;20041;-76
2022/03/18 10:42:20;;;;;;;15.10;5.75;;;20.10;57.60;;;;;;5013730;28;20045;-76
2022/03/18 10:44:49;;;;;;;11.02;5.18;;;20.10;58.20;;;;;;5013704;28;20124;-76
2022/03/18 10:47:40;;;;;;;13.50;5.50;;;20.30;57.60;;;;;;5013668;28;20121;-75
2022/03/18 10:50:23;;;;;;;12.05;4.85;;;20.30;57.00;;;;;;4996751;28;20037;-77
2022/03/18 10:52:49;;;;;;;14.05;5.30;;;20.40;56.50;;;;;;4997406;28;20048;-77
2022/03/18 10:55:20;;;;;;;15.25;5.20;;;20.40;56.90;;;;;;4997017;28;20042;-76
2022/03/18 10:57:50;;;;;;;10.90;4.80;;;20.40;56.20;;;;;;5013325;28;20458;-76
2022/03/18 11:00:23;;;;;;;12.07;4.63;;;20.40;55.90;;;;;;5013279;28;20034;-76
2022/03/18 11:02:52;;;;;;;12.98;5.05;;;20.40;56.50;;;;;;5013595;28;20515;-77
2022/03/18 11:05:22;;;;;;;13.25;4.78;;;20.60;56.40;;;;;;4997104;28;20038;-76
2022/03/18 11:07:53;;;;;;;11.10;3.55;;;20.60;55.70;;;;;;5013140;28;20445;-76
2022/03/18 11:13:05;;;;;;;14.80;4.68;;;20.80;55.30;;;;;;5013441;28;20503;-75
2022/03/18 11:15:33;;;;;;;12.77;4.45;;;20.90;55.60;;;;;;5013236;28;20042;-74
2022/03/18 11:18:03;;;;;;;8.30;4.00;;;21.20;54.50;;;;;;5013294;28;20029;-74
2022/03/18 11:20:30;;;;;;;12.45;4.07;;;21.20;54.70;;;;;;5013621;28;20042;-74
2022/03/18 11:22:56;;;;;;;13.30;4.13;;;21.30;53.90;;;;;;5013037;28;20049;-74
2022/03/18 11:25:23;;;;;;;11.50;3.95;;;20.90;53.90;;;;;;5013379;28;20038;-74
2022/03/18 11:27:51;;;;;;;14.85;3.78;;;20.50;55.00;;;;;;5013033;28;20041;-74
2022/03/18 11:30:25;;;;;;;10.27;3.35;;;20.60;55.30;;;;;;5013778;28;20083;-74
2022/03/18 11:33:06;;;;;;;12.45;3.45;;;20.70;54.20;;;;;;5013289;28;20033;-76
2022/03/18 11:36:03;;;;;;;15.88;4.10;;;20.90;53.60;;;;;;5013037;28;20077;-76
2022/03/18 11:38:47;;;;;;;10.82;3.72;;;21.00;52.50;;;;;;4993625;28;20119;-75
2022/03/18 11:41:14;;;;;;;10.10;3.80;;;20.90;52.00;;;;;;5012891;28;20041;-75
2022/03/18 11:43:39;;;;;;;12.07;3.80;;;21.00;54.10;;;;;;5012736;28;20037;-76
2022/03/18 11:46:17;;;;;;;10.15;3.53;;;21.10;53.70;;;;;;5012852;28;20449;-76
2022/03/18 11:48:51;;;;;;;11.63;4.00;;;21.30;52.50;;;;;;5012790;28;20486;-76
2022/03/18 11:51:35;;;;;;;18.02;3.53;;;21.50;51.70;;;;;;5012720;28;20498;-76
2022/03/18 11:54:10;;;;;;;14.23;4.30;;;21.70;50.10;;;;;;4996831;28;20038;-76
2022/03/18 11:56:46;;;;;;;12.10;4.45;;;21.50;50.70;;;;;;4996823;28;20041;-76
2022/03/18 11:59:23;;;;;;;10.75;4.43;;;21.10;51.30;;;;;;5012971;28;20034;-75
2022/03/18 12:02:09;;;;;;;12.23;4.40;;;21.10;51.60;;;;;;4995361;28;20070;-75
2022/03/18 12:04:41;;;;;;;11.57;4.03;;;21.10;51.70;;;;;;4996280;28;20099;-75
2022/03/18 12:07:21;;;;;;;12.02;4.93;;;20.80;52.40;;;;;;4996531;28;20052;-75
2022/03/18 12:10:07;;;;;;;10.40;4.38;;;20.20;52.30;;;;;;5012962;28;20049;-76
2022/03/18 12:12:43;;;;;;;9.88;3.40;;;20.00;53.20;;;;;;5013412;28;20065;-76
2022/03/18 12:15:12;;;;;;;10.52;3.67;;;20.30;53.80;;;;;;4996509;28;20034;-75
2022/03/18 12:17:56;;;;;;;12.73;3.53;;;20.60;52.90;;;;;;5012219;28;20053;-75
2022/03/18 12:20:31;;;;;;;18.30;4.40;;;20.90;51.50;;;;;;5012540;28;20038;-75
2022/03/18 12:22:58;;;;;;;11.18;3.85;;;21.20;52.30;;;;;;5012303;28;20045;-75
2022/03/18 12:25:24;;;;;;;12.07;4.13;;;21.60;52.60;;;;;;5013044;28;20437;-76
2022/03/18 12:27:52;;;;;;;14.65;4.15;;;21.60;51.60;;;;;;5012372;28;20096;-75
2022/03/18 12:30:20;;;;;;;11.10;4.20;;;21.20;51.10;;;;;;4996250;28;20049;-75
2022/03/18 12:33:00;;;;;;;12.45;4.07;;;20.90;51.70;;;;;;5012348;28;20042;-75
2022/03/18 12:35:28;;;;;;;12.30;4.50;;;21.00;52.40;;;;;;5012731;28;20077;-76
2022/03/18 12:38:17;;;;;;;9.32;3.45;;;21.20;51.80;;;;;;5012450;28;20038;-75
2022/03/18 12:40:44;;;;;;;12.13;3.50;;;21.50;51.40;;;;;;4995822;28;20486;-75
2022/03/18 12:43:10;;;;;;;10.90;2.92;;;21.50;50.90;;;;;;5012027;28;20030;-75
2022/03/18 12:45:39;;;;;;;11.05;3.83;;;21.50;51.00;;;;;;5012318;28;20495;-76
2022/03/18 12:48:08;;;;;;;10.10;3.10;;;21.70;50.60;;;;;;4996249;28;20046;-75
2022/03/18 12:50:38;;;;;;;12.10;3.50;;;22.00;50.30;;;;;;4996225;28;20041;-75
2022/03/18 12:53:27;;;;;;;11.65;3.83;;;21.90;49.50;;;;;;4995882;28;20084;-75
2022/03/18 12:55:55;;;;;;;10.88;3.55;;;21.50;49.20;;;;;;5012239;28;20042;-75
2022/03/18 12:58:23;;;;;;;12.35;3.40;;;21.30;50.30;;;;;;5012613;28;20510;-76
2022/03/18 13:00:51;;;;;;;11.65;3.47;;;21.50;50.40;;;;;;5012580;28;20391;-77
2022/03/18 13:03:28;;;;;;;10.07;2.75;;;21.70;50.10;;;;;;4995643;28;20653;-77
2022/03/18 13:06:17;;;;;;;10.77;3.70;;;21.80;49.20;;;;;;4996363;28;20038;-76
2022/03/18 13:08:43;;;;;;;8.88;3.45;;;21.60;48.80;;;;;;4995937;28;20050;-75
2022/03/18 13:11:12;;;;;;;10.93;3.50;;;21.20;49.50;;;;;;4996705;28;20045;-76